Terminal Aerodrome Forecast
Issued by NWS

Current Version | Previous Version | Graphics & Text | Print | Product List | Glossary On
Versions: 1 2 3 4 5 6 7 8 9 10 11 12 13 14 15 16 17 18
000
FTUS41 KILN 261700
TAFLUK
TAF
KLUK 261739Z 2618/2718 31008KT P6SM SCT018 BKN250
     FM262300 01003KT P6SM FEW020 BKN080
     FM271600 35008KT P6SM FEW025 SCT080=

USA.gov is the U.S. government's official web portal to all federal, state and local government web resources and services.